Time;durP1;ratioP1;P1;durP2;ratioP2;P2;SDS_P1;SDS_P2;PMS_P1;PMS_P2;Temp;Humidity;BMP_temperature;BMP_pressure;BME280_temperature;BME280_humidity;BME280_pressure;Samples;Min_cycle;Max_cycle;Signal;HPM_P1;HPM_P2
2021/01/17 00:00:52;;;;;;;138.30;41.67;;;-7.10;99.90;;;;;;4887527;29;20227;-91
2021/01/17 00:03:19;;;;;;;94.50;32.43;;;;;;;;;;4888380;29;20188;-92
2021/01/17 00:08:14;;;;;;;66.83;26.90;;;;;;;;;;4866742;29;20238;-94
2021/01/17 00:10:41;;;;;;;72.73;21.80;;;;;;;;;;4961160;23;20265;-92
2021/01/17 00:13:07;;;;;;;59.17;21.33;;;-7.30;99.90;;;;;;4866515;29;20183;-92
2021/01/17 00:18:06;;;;;;;55.70;21.93;;;;;;;;;;4864562;29;20277;-93
2021/01/17 00:20:33;;;;;;;65.17;26.57;;;-7.30;99.90;;;;;;4869824;29;20311;-92
2021/01/17 00:23:05;;;;;;;61.97;23.70;;;-7.40;99.90;;;;;;4868714;29;20712;-93
2021/01/17 00:25:32;;;;;;;52.93;23.90;;;;;;;;;;4875429;29;20173;-92
2021/01/17 00:28:01;;;;;;;62.00;23.77;;;;;;;;;;4876406;29;20195;-93
2021/01/17 00:30:31;;;;;;;70.20;27.93;;;-7.40;99.90;;;;;;4970241;23;20179;-92
2021/01/17 00:32:59;;;;;;;61.27;23.93;;;-7.50;99.90;;;;;;4883739;29;20228;-93
2021/01/17 00:35:26;;;;;;;54.43;21.63;;;-7.50;99.90;;;;;;5018345;23;20223;-92
2021/01/17 00:37:58;;;;;;;57.07;25.37;;;-7.50;99.90;;;;;;5245605;23;20444;-92
2021/01/17 00:43:02;;;;;;;53.47;24.20;;;;;;;;;;5116645;23;20392;-95
2021/01/17 00:45:29;;;;;;;50.27;21.13;;;-7.60;99.90;;;;;;4868837;29;20190;-94
2021/01/17 00:47:56;;;;;;;56.17;21.53;;;-7.60;99.90;;;;;;4870403;29;20227;-95
2021/01/17 00:50:23;;;;;;;62.50;23.33;;;-7.60;99.90;;;;;;4870910;29;20280;-95
2021/01/17 00:55:24;;;;;;;66.23;24.97;;;;;;;;;;4888782;23;20234;-94
2021/01/17 00:57:51;;;;;;;60.80;23.70;;;-7.60;99.90;;;;;;4884861;29;20182;-94
2021/01/17 01:00:20;;;;;;;60.17;25.63;;;-5.70;99.90;;;;;;5254418;23;20245;-93
2021/01/17 01:05:24;;;;;;;57.03;22.07;;;;;;;;;;4996410;23;20237;-93
2021/01/17 01:07:50;;;;;;;52.97;22.50;;;-7.60;99.90;;;;;;4869765;29;20215;-93
2021/01/17 01:10:16;;;;;;;62.30;24.63;;;;;;;;;;4988927;23;20254;-93
2021/01/17 01:12:42;;;;;;;67.90;24.17;;;-7.70;99.90;;;;;;4905837;29;20190;-94
2021/01/17 01:15:08;;;;;;;102.80;33.67;;;-6.90;99.90;;;;;;4891044;29;20731;-93
2021/01/17 01:17:34;;;;;;;190.97;59.90;;;-7.60;99.90;;;;;;5093962;23;20237;-93
2021/01/17 01:20:00;;;;;;;74.40;30.20;;;;;;;;;;4920791;23;20256;-93
2021/01/17 01:22:26;;;;;;;82.67;29.53;;;-7.60;99.90;;;;;;4868086;29;20183;-92
2021/01/17 01:24:52;;;;;;;82.87;31.17;;;;;;;;;;4865386;29;20190;-93
2021/01/17 01:27:18;;;;;;;63.20;26.23;;;;;;;;;;4998374;23;20251;-92
2021/01/17 01:29:44;;;;;;;51.97;21.30;;;;;;;;;;4900718;23;20266;-94
2021/01/17 01:32:13;;;;;;;51.37;23.40;;;-7.60;99.90;;;;;;4867507;29;20627;-94
2021/01/17 01:34:39;;;;;;;60.87;24.73;;;;;;;;;;4869827;29;20243;-94
2021/01/17 01:37:05;;;;;;;53.43;23.63;;;-7.80;99.90;;;;;;4867730;29;20321;-93
2021/01/17 01:39:31;;;;;;;49.27;22.13;;;;;;;;;;4869502;29;20183;-93
2021/01/17 01:41:57;;;;;;;47.27;20.30;;;;;;;;;;4854204;29;20196;-92
2021/01/17 01:44:23;;;;;;;53.37;20.20;;;;;;;;;;4921741;23;20192;-91
2021/01/17 01:46:55;;;;;;;52.33;22.77;;;;;;;;;;4949979;23;20247;-90
2021/01/17 01:49:21;;;;;;;61.73;25.63;;;;;;;;;;4875406;29;20187;-91
2021/01/17 01:51:47;;;;;;;61.33;25.33;;;;;;;;;;4868963;29;20184;-93
2021/01/17 01:54:13;;;;;;;57.37;21.90;;;;;;;;;;4866170;29;20284;-94
2021/01/17 01:56:39;;;;;;;57.23;24.33;;;-7.80;99.90;;;;;;4862200;29;20294;-95
2021/01/17 01:59:04;;;;;;;59.50;22.93;;;-8.00;99.90;;;;;;4861132;29;20267;-92
2021/01/17 02:01:32;;;;;;;61.57;24.70;;;-7.80;99.90;;;;;;4861235;29;20187;-94
2021/01/17 02:03:57;;;;;;;44.27;17.73;;;-7.90;99.90;;;;;;4864403;29;20200;-94
2021/01/17 02:06:24;;;;;;;51.90;22.13;;;-8.10;99.90;;;;;;4863090;29;20187;-93
2021/01/17 02:09:09;;;;;;;44.47;18.33;;;-8.00;99.90;;;;;;4862593;29;20657;-93
2021/01/17 02:11:43;;;;;;;53.13;19.63;;;-8.00;99.90;;;;;;4864248;29;20273;-94
2021/01/17 02:14:32;;;;;;;55.03;23.30;;;-8.00;99.90;;;;;;4862901;29;20214;-94
2021/01/17 02:17:00;;;;;;;48.70;22.17;;;-8.00;99.90;;;;;;4862240;29;20198;-94
2021/01/17 02:19:34;;;;;;;54.03;23.87;;;-8.00;99.90;;;;;;4862804;29;20184;-94
2021/01/17 02:22:02;;;;;;;52.80;20.27;;;-8.10;99.90;;;;;;4864028;29;20308;-93
2021/01/17 02:24:33;;;;;;;51.63;21.73;;;-8.00;99.90;;;;;;4863013;29;20195;-95
2021/01/17 02:27:00;;;;;;;55.33;23.30;;;-8.20;99.90;;;;;;4862521;29;20274;-93
2021/01/17 02:29:27;;;;;;;45.33;22.17;;;-8.20;99.90;;;;;;4862697;29;20676;-93
2021/01/17 02:31:58;;;;;;;55.13;24.63;;;-8.20;99.90;;;;;;4863061;29;20662;-92
2021/01/17 02:34:27;;;;;;;52.17;22.20;;;-8.20;99.90;;;;;;4862626;29;20261;-93
2021/01/17 02:37:03;;;;;;;53.03;22.63;;;-8.10;99.90;;;;;;4862593;29;20284;-93
2021/01/17 02:39:49;;;;;;;39.57;18.60;;;-8.20;99.90;;;;;;4863676;29;20205;-93
2021/01/17 02:42:15;;;;;;;44.93;18.07;;;-8.20;99.90;;;;;;4863708;29;20178;-93
2021/01/17 02:44:43;;;;;;;45.13;21.07;;;-8.20;99.90;;;;;;4862564;29;20523;-93
2021/01/17 02:47:08;;;;;;;40.97;16.57;;;-8.20;99.90;;;;;;4862094;29;20325;-91
2021/01/17 02:49:34;;;;;;;49.63;19.07;;;-8.20;99.90;;;;;;4863366;29;20656;-93
2021/01/17 02:52:04;;;;;;;60.50;26.07;;;-8.30;99.90;;;;;;4862072;29;20197;-91
2021/01/17 02:54:35;;;;;;;35.13;18.20;;;-8.30;99.90;;;;;;4862195;29;20213;-93
2021/01/17 02:57:24;;;;;;;44.53;18.07;;;-8.40;99.90;;;;;;4862099;29;20273;-93
2021/01/17 03:00:03;;;;;;;53.20;18.97;;;-8.40;99.90;;;;;;4862266;29;20178;-93
2021/01/17 03:02:35;;;;;;;68.77;27.57;;;-8.40;99.90;;;;;;4863070;29;20255;-93
2021/01/17 03:05:06;;;;;;;39.70;18.67;;;-8.30;99.90;;;;;;4863232;29;20171;-94
2021/01/17 03:07:34;;;;;;;48.27;18.30;;;-8.40;99.90;;;;;;4847067;29;20194;-94
2021/01/17 03:10:04;;;;;;;49.57;22.07;;;-4.90;99.90;;;;;;4861909;29;20190;-93
2021/01/17 03:12:30;;;;;;;53.70;19.37;;;;;;;;;;4862111;29;20191;-93
2021/01/17 03:14:59;;;;;;;48.73;19.73;;;-8.30;99.90;;;;;;4861873;29;20214;-93
2021/01/17 03:17:24;;;;;;;67.10;24.20;;;-8.40;99.90;;;;;;4861876;29;20199;-94
2021/01/17 03:19:50;;;;;;;59.93;20.97;;;;;;;;;;4863153;29;20184;-92
2021/01/17 03:22:16;;;;;;;53.40;22.53;;;-8.30;99.90;;;;;;4846103;29;20196;-92
2021/01/17 03:24:42;;;;;;;51.07;20.90;;;-8.50;99.90;;;;;;4845902;29;20200;-92
2021/01/17 03:27:07;;;;;;;47.43;19.03;;;-8.40;99.90;;;;;;4846198;29;20668;-92
2021/01/17 03:29:33;;;;;;;48.37;17.50;;;;;;;;;;4861305;29;20187;-92
2021/01/17 03:31:59;;;;;;;42.23;17.57;;;;;;;;;;4862214;29;20578;-92
2021/01/17 03:34:25;;;;;;;49.07;19.77;;;;;;;;;;4861283;29;20312;-93
2021/01/17 03:36:51;;;;;;;45.77;20.60;;;-8.40;99.90;;;;;;4861307;29;20233;-92
2021/01/17 03:39:17;;;;;;;49.07;20.30;;;;;;;;;;4845654;29;20226;-94
2021/01/17 03:41:43;;;;;;;43.13;19.57;;;;;;;;;;4861639;29;20187;-94
2021/01/17 03:44:09;;;;;;;42.83;18.37;;;;;;;;;;4861400;29;20664;-94
2021/01/17 03:46:35;;;;;;;49.23;20.53;;;-8.40;99.90;;;;;;4861264;29;20340;-90
2021/01/17 03:49:00;;;;;;;42.97;18.87;;;-6.60;99.90;;;;;;4847890;29;20350;-96
2021/01/17 03:51:26;;;;;;;43.70;19.67;;;-8.40;99.90;;;;;;4853965;29;20196;-93
2021/01/17 03:53:52;;;;;;;51.87;21.00;;;-8.60;99.90;;;;;;4861404;29;20219;-93
2021/01/17 03:56:17;;;;;;;56.10;24.27;;;-8.50;99.90;;;;;;4861123;29;20202;-92
2021/01/17 03:58:44;;;;;;;44.97;18.00;;;;;;;;;;4861824;29;20183;-95
2021/01/17 04:01:10;;;;;;;45.20;17.83;;;-8.60;99.90;;;;;;4870366;29;20675;-95
2021/01/17 04:03:35;;;;;;;54.27;21.80;;;-8.70;99.90;;;;;;4864913;29;20195;-94
2021/01/17 04:06:01;;;;;;;39.83;17.17;;;-8.60;99.90;;;;;;4848751;29;20640;-94
2021/01/17 04:08:27;;;;;;;41.60;17.60;;;;;;;;;;4865347;29;20191;-95
2021/01/17 04:10:53;;;;;;;48.33;22.23;;;-8.70;99.90;;;;;;4864507;29;20186;-94
2021/01/17 04:13:19;;;;;;;51.13;18.90;;;-8.70;99.90;;;;;;4846855;29;20300;-93
2021/01/17 04:15:44;;;;;;;36.93;19.03;;;-8.70;99.90;;;;;;4861906;29;20208;-90
2021/01/17 04:18:10;;;;;;;39.47;17.03;;;-8.70;99.90;;;;;;4860188;29;20202;-91
2021/01/17 04:20:36;;;;;;;57.00;24.30;;;-8.80;99.90;;;;;;4860300;29;20200;-92
2021/01/17 04:23:04;;;;;;;40.87;18.40;;;-8.70;99.90;;;;;;4860284;29;20198;-91
2021/01/17 04:25:31;;;;;;;48.13;19.20;;;-8.70;99.90;;;;;;4859762;29;20186;-91
2021/01/17 04:27:57;;;;;;;54.60;22.97;;;-8.70;99.90;;;;;;4861094;29;20187;-91
2021/01/17 04:30:26;;;;;;;57.67;22.50;;;-8.70;99.90;;;;;;4861200;29;20246;-92
2021/01/17 04:32:53;;;;;;;54.27;22.50;;;-8.80;99.90;;;;;;4861206;29;20193;-91
2021/01/17 04:35:19;;;;;;;49.00;20.13;;;-9.00;99.90;;;;;;4859754;29;20651;-92
2021/01/17 04:37:44;;;;;;;42.43;18.90;;;-8.80;99.90;;;;;;4861558;29;20222;-92
2021/01/17 04:40:10;;;;;;;41.60;17.37;;;-8.80;99.90;;;;;;4844824;29;20569;-91
2021/01/17 04:42:39;;;;;;;38.23;16.80;;;-8.70;99.90;;;;;;4859876;29;20317;-92
2021/01/17 04:45:08;;;;;;;37.63;16.53;;;-5.60;99.90;;;;;;4860699;29;20640;-91
2021/01/17 04:47:39;;;;;;;53.83;22.97;;;-8.70;99.90;;;;;;4860074;29;20685;-93
2021/01/17 04:50:07;;;;;;;38.80;17.93;;;-8.60;99.90;;;;;;4859747;29;20186;-92
2021/01/17 04:53:04;;;;;;;57.97;24.83;;;-8.60;99.90;;;;;;4860922;29;20708;-92
2021/01/17 04:55:30;;;;;;;61.33;21.47;;;-8.60;99.90;;;;;;4835769;29;20240;-91
2021/01/17 04:58:09;;;;;;;55.23;22.03;;;-8.60;99.90;;;;;;4860483;29;20250;-92
2021/01/17 05:00:39;;;;;;;51.73;21.77;;;-8.60;99.90;;;;;;4859791;29;20185;-91
2021/01/17 05:03:26;;;;;;;43.83;18.20;;;-8.80;99.90;;;;;;4860791;29;20190;-91
2021/01/17 05:06:18;;;;;;;44.37;19.10;;;-8.70;99.90;;;;;;4860222;29;20234;-92
2021/01/17 05:08:44;;;;;;;48.17;19.33;;;-8.70;99.90;;;;;;4868653;29;20186;-91
2021/01/17 05:11:31;;;;;;;55.37;22.50;;;-8.60;99.90;;;;;;4867961;29;20192;-88
2021/01/17 05:14:12;;;;;;;43.47;18.00;;;-7.70;99.90;;;;;;4883642;29;20187;-89
2021/01/17 05:16:41;;;;;;;48.27;18.80;;;-8.60;99.90;;;;;;4883035;29;20254;-90
2021/01/17 05:19:11;;;;;;;55.90;22.00;;;-8.50;99.90;;;;;;4883411;29;20166;-89
2021/01/17 05:21:39;;;;;;;53.97;20.53;;;-8.50;99.90;;;;;;4866003;29;20183;-92
2021/01/17 05:24:11;;;;;;;47.70;21.27;;;-8.60;99.90;;;;;;4850907;29;20197;-93
2021/01/17 05:26:41;;;;;;;57.27;21.67;;;-8.50;99.90;;;;;;4878302;29;20179;-90
2021/01/17 05:29:07;;;;;;;64.57;25.90;;;;;;;;;;4883807;29;20199;-89
2021/01/17 05:31:33;;;;;;;56.03;21.53;;;-8.50;99.90;;;;;;4882533;29;20242;-89
2021/01/17 05:33:59;;;;;;;54.43;22.90;;;-8.60;99.90;;;;;;4882051;29;20219;-89
2021/01/17 05:36:25;;;;;;;57.67;22.60;;;-8.00;99.90;;;;;;4861153;29;20187;-91
2021/01/17 05:39:03;;;;;;;73.93;25.17;;;-8.60;99.90;;;;;;4846694;29;20280;-90
2021/01/17 05:41:29;;;;;;;55.93;23.03;;;-8.50;99.90;;;;;;4862142;29;20189;-90
2021/01/17 05:43:55;;;;;;;154.10;49.03;;;-8.50;99.90;;;;;;4846993;29;20190;-91
2021/01/17 05:46:20;;;;;;;67.83;28.13;;;-8.00;99.90;;;;;;4847023;29;20305;-91
2021/01/17 05:48:46;;;;;;;61.43;23.90;;;;;;;;;;4864865;29;20220;-92
2021/01/17 05:51:27;;;;;;;58.83;22.60;;;-8.40;99.90;;;;;;4864116;29;20187;-92
2021/01/17 05:53:54;;;;;;;61.43;24.73;;;-8.50;99.90;;;;;;4862958;29;20537;-91
2021/01/17 05:56:20;;;;;;;61.47;25.13;;;-8.50;99.90;;;;;;4849626;29;20692;-92
2021/01/17 05:58:46;;;;;;;68.47;25.73;;;-8.50;99.90;;;;;;4863919;29;20308;-92
2021/01/17 06:01:19;;;;;;;65.27;20.97;;;-8.50;99.90;;;;;;4846620;29;20195;-90
2021/01/17 06:03:55;;;;;;;68.17;28.43;;;-8.50;99.90;;;;;;4864050;29;20255;-92
2021/01/17 06:06:28;;;;;;;63.53;25.57;;;-8.50;99.90;;;;;;4861114;29;20235;-90
2021/01/17 06:08:56;;;;;;;73.27;24.77;;;-8.50;99.90;;;;;;4846644;29;20682;-92
2021/01/17 06:11:22;;;;;;;60.37;22.73;;;-8.60;99.90;;;;;;4846224;29;20561;-91
2021/01/17 06:13:56;;;;;;;49.30;19.90;;;-8.60;99.90;;;;;;4863070;29;20233;-91
2021/01/17 06:16:41;;;;;;;65.00;23.73;;;-8.00;99.90;;;;;;4861886;29;20237;-91
2021/01/17 06:19:09;;;;;;;68.87;26.30;;;-8.50;99.90;;;;;;4846042;29;20178;-91
2021/01/17 06:21:36;;;;;;;69.90;25.53;;;-8.50;99.90;;;;;;4865584;29;20719;-92
2021/01/17 06:24:07;;;;;;;74.87;27.37;;;-8.50;99.90;;;;;;4849582;29;20283;-92
2021/01/17 06:26:35;;;;;;;80.97;23.30;;;-8.50;99.90;;;;;;4865165;29;20198;-92
2021/01/17 06:29:04;;;;;;;72.70;26.73;;;-8.60;99.90;;;;;;4847680;29;20274;-93
2021/01/17 06:31:31;;;;;;;70.10;25.43;;;-8.40;99.90;;;;;;4862354;29;20202;-89
2021/01/17 06:34:06;;;;;;;57.27;21.53;;;-8.30;99.90;;;;;;4847317;29;20222;-87
2021/01/17 06:36:33;;;;;;;69.53;26.40;;;-8.30;99.90;;;;;;4861550;29;20210;-89
2021/01/17 06:38:59;;;;;;;75.10;26.50;;;;;;;;;;4862230;29;20194;-88
2021/01/17 06:41:35;;;;;;;71.97;29.63;;;-8.30;99.90;;;;;;4864119;29;20198;-88
2021/01/17 06:44:12;;;;;;;82.90;26.90;;;-8.30;99.90;;;;;;4857110;29;20271;-89
2021/01/17 06:46:43;;;;;;;82.00;28.13;;;-6.30;99.90;;;;;;4857835;29;20237;-90
2021/01/17 06:49:21;;;;;;;77.83;26.27;;;-8.20;99.90;;;;;;4858355;29;20186;-89
2021/01/17 06:51:50;;;;;;;74.63;25.07;;;-8.30;99.90;;;;;;4861498;29;20187;-89
2021/01/17 06:54:18;;;;;;;57.20;21.20;;;-8.30;99.90;;;;;;4861015;29;20229;-90
2021/01/17 06:56:58;;;;;;;98.57;33.87;;;-8.40;99.90;;;;;;4844332;29;20192;-91
2021/01/17 06:59:45;;;;;;;188.70;58.27;;;-8.40;99.90;;;;;;4858460;29;20192;-91
2021/01/17 07:02:10;;;;;;;83.73;30.70;;;-8.30;99.90;;;;;;4857426;29;20200;-89
2021/01/17 07:04:57;;;;;;;73.33;26.23;;;-8.40;99.90;;;;;;4863233;29;20195;-89
2021/01/17 07:07:51;;;;;;;74.70;26.70;;;-8.30;99.90;;;;;;4860984;29;20199;-91
2021/01/17 07:10:24;;;;;;;70.43;26.33;;;-8.30;99.90;;;;;;4853154;29;20186;-90
2021/01/17 07:12:55;;;;;;;57.33;19.47;;;-8.30;99.90;;;;;;4860296;29;20691;-87
2021/01/17 07:15:31;;;;;;;70.93;25.03;;;-8.30;99.90;;;;;;4848589;29;20308;-87
2021/01/17 07:18:06;;;;;;;60.20;23.43;;;-8.30;99.90;;;;;;4857902;29;20183;-87
2021/01/17 07:20:37;;;;;;;86.90;25.43;;;-8.30;99.90;;;;;;4858217;29;20200;-88
2021/01/17 07:23:04;;;;;;;73.67;25.13;;;-8.30;99.90;;;;;;4860941;29;20202;-89
2021/01/17 07:25:33;;;;;;;77.20;25.77;;;-8.30;99.90;;;;;;4851634;29;20207;-89
2021/01/17 07:28:16;;;;;;;90.67;30.73;;;-8.50;99.90;;;;;;4860060;29;20235;-91
2021/01/17 07:31:06;;;;;;;91.90;31.03;;;-4.80;99.90;;;;;;4815869;29;20198;-89
2021/01/17 07:33:40;;;;;;;66.27;23.53;;;-8.30;99.90;;;;;;4858611;29;20182;-89
2021/01/17 07:36:10;;;;;;;65.57;27.57;;;-8.50;99.90;;;;;;4857273;29;20202;-89
2021/01/17 07:38:45;;;;;;;62.90;23.03;;;-8.40;99.90;;;;;;4868335;29;20183;-88
2021/01/17 07:41:13;;;;;;;75.10;26.17;;;-8.30;99.90;;;;;;4842510;29;20182;-87
2021/01/17 07:43:43;;;;;;;140.37;49.20;;;-8.60;99.90;;;;;;4845138;29;20198;-89
2021/01/17 07:46:14;;;;;;;84.93;32.07;;;-8.30;99.90;;;;;;4858599;29;20265;-89
2021/01/17 07:48:41;;;;;;;92.03;36.00;;;-8.20;99.90;;;;;;4852783;29;20221;-90
2021/01/17 07:51:11;;;;;;;102.37;33.57;;;-8.40;99.90;;;;;;4849444;29;20203;-90
2021/01/17 07:53:36;;;;;;;110.63;41.10;;;-8.60;99.90;;;;;;4857582;29;20202;-88
2021/01/17 07:56:06;;;;;;;72.53;27.93;;;-8.40;99.90;;;;;;4858639;29;20222;-87
2021/01/17 07:58:36;;;;;;;106.13;39.23;;;-8.40;99.90;;;;;;4854201;29;20285;-87
2021/01/17 08:01:02;;;;;;;171.67;61.77;;;-8.50;99.90;;;;;;4842508;29;20218;-85
2021/01/17 08:03:28;;;;;;;173.60;58.40;;;;;;;;;;4852330;29;20234;-86
2021/01/17 08:05:57;;;;;;;74.20;26.63;;;-8.50;99.90;;;;;;4853025;29;20814;-87
2021/01/17 08:08:35;;;;;;;81.93;28.17;;;-8.60;99.90;;;;;;4843278;29;20258;-89
2021/01/17 08:11:02;;;;;;;52.70;20.47;;;;;;;;;;4858479;29;20202;-89
2021/01/17 08:13:34;;;;;;;73.23;25.33;;;-6.50;99.90;;;;;;4859376;29;20217;-87
2021/01/17 08:16:10;;;;;;;78.97;27.00;;;-8.50;99.90;;;;;;4848863;29;20247;-90
2021/01/17 08:18:36;;;;;;;76.10;28.87;;;-8.40;99.90;;;;;;4846757;29;20208;-87
2021/01/17 08:21:20;;;;;;;74.67;24.37;;;-8.50;99.90;;;;;;4860193;29;20191;-87
2021/01/17 08:24:18;;;;;;;60.67;22.83;;;-8.50;99.90;;;;;;4845299;29;20206;-88
2021/01/17 08:26:57;;;;;;;56.40;19.73;;;-8.60;99.90;;;;;;4821964;29;20260;-86
2021/01/17 08:29:23;;;;;;;96.00;27.40;;;;;;;;;;4839408;29;20205;-88
2021/01/17 08:31:49;;;;;;;62.77;22.73;;;;;;;;;;4837638;29;20294;-90
2021/01/17 08:34:17;;;;;;;62.30;20.37;;;-8.50;99.90;;;;;;4858006;29;20222;-90
2021/01/17 08:36:45;;;;;;;53.40;19.53;;;-8.50;99.90;;;;;;4861253;29;20218;-88
2021/01/17 08:39:11;;;;;;;76.43;24.80;;;;;;;;;;4874559;29;20197;-89
2021/01/17 08:41:39;;;;;;;134.03;39.53;;;;;;;;;;4856833;29;20259;-91
2021/01/17 08:46:55;;;;;;;123.23;37.03;;;-8.40;99.90;;;;;;5091996;27;20555;-89
2021/01/17 08:49:36;;;;;;;70.40;25.93;;;-7.90;99.90;;;;;;5055034;28;20199;-87
2021/01/17 08:52:02;;;;;;;74.33;27.97;;;-8.20;99.90;;;;;;5087224;28;20213;-87
2021/01/17 08:54:28;;;;;;;78.87;25.90;;;-8.20;99.90;;;;;;5069834;28;20577;-86
2021/01/17 08:56:54;;;;;;;73.30;25.60;;;-7.70;99.90;;;;;;5071386;28;20285;-86
2021/01/17 08:59:34;;;;;;;70.47;24.77;;;-8.10;99.90;;;;;;5063783;28;20284;-87
2021/01/17 09:02:00;;;;;;;81.10;27.37;;;-5.90;99.90;;;;;;5083681;28;20651;-87
2021/01/17 09:04:27;;;;;;;95.10;30.00;;;-8.00;99.90;;;;;;5075524;28;20187;-88
2021/01/17 09:06:53;;;;;;;82.37;27.43;;;-8.00;99.90;;;;;;5066557;28;20178;-88
2021/01/17 09:09:19;;;;;;;81.57;28.07;;;-7.90;99.90;;;;;;5056491;28;20186;-90
2021/01/17 09:11:45;;;;;;;72.33;25.53;;;-6.40;99.90;;;;;;5072368;28;20182;-86
2021/01/17 09:14:13;;;;;;;68.97;25.97;;;-6.60;99.90;;;;;;5073238;28;20217;-87
2021/01/17 09:16:48;;;;;;;71.63;26.27;;;-7.90;99.90;;;;;;5080142;28;20279;-87
2021/01/17 09:19:15;;;;;;;108.03;38.30;;;-7.80;99.90;;;;;;5077018;28;20247;-88
2021/01/17 09:21:41;;;;;;;80.93;30.50;;;-7.80;99.90;;;;;;5074430;28;20256;-90
2021/01/17 09:24:18;;;;;;;105.80;34.17;;;-6.50;99.90;;;;;;5070117;28;20216;-87
2021/01/17 09:26:49;;;;;;;91.53;30.43;;;-7.70;99.90;;;;;;5060541;28;20253;-87
2021/01/17 09:29:31;;;;;;;82.83;30.13;;;-7.80;99.90;;;;;;5082078;28;20183;-89
2021/01/17 09:32:14;;;;;;;66.90;26.27;;;-7.70;99.90;;;;;;5084717;28;20187;-89
2021/01/17 09:34:42;;;;;;;87.70;30.90;;;-7.60;99.90;;;;;;5072060;28;20222;-88
2021/01/17 09:37:11;;;;;;;73.27;24.70;;;-7.60;99.90;;;;;;5068396;28;20182;-89
2021/01/17 09:39:41;;;;;;;78.50;27.27;;;-7.50;99.90;;;;;;5072905;28;20182;-88
2021/01/17 09:42:08;;;;;;;82.17;27.93;;;-7.50;99.90;;;;;;5073083;28;20203;-90
2021/01/17 09:44:37;;;;;;;67.93;25.90;;;-7.50;99.90;;;;;;5054223;28;20187;-92
2021/01/17 09:47:12;;;;;;;74.30;24.43;;;-7.50;99.90;;;;;;5052336;28;20190;-90
2021/01/17 09:49:37;;;;;;;68.37;24.43;;;-7.50;99.90;;;;;;5037399;28;20660;-89
2021/01/17 09:52:03;;;;;;;54.83;22.20;;;-7.00;99.90;;;;;;5038037;28;20190;-89
2021/01/17 09:54:29;;;;;;;68.70;22.13;;;-7.50;99.90;;;;;;5055745;28;20192;-90
2021/01/17 09:56:54;;;;;;;65.60;24.60;;;-7.00;99.90;;;;;;5046399;28;20267;-90
2021/01/17 09:59:22;;;;;;;69.97;22.67;;;-7.70;99.90;;;;;;5040715;28;20176;-87
2021/01/17 10:01:49;;;;;;;69.60;24.93;;;-4.80;99.90;;;;;;5059469;28;20174;-89
2021/01/17 10:04:23;;;;;;;68.13;26.60;;;-6.60;99.90;;;;;;5056751;28;20182;-89
2021/01/17 10:06:51;;;;;;;52.93;20.80;;;-5.60;99.90;;;;;;5051260;28;20704;-88
2021/01/17 10:09:19;;;;;;;125.03;36.83;;;-7.60;99.90;;;;;;5035397;28;20180;-89
2021/01/17 10:11:45;;;;;;;77.27;28.00;;;-6.60;99.90;;;;;;5046428;28;20182;-89
2021/01/17 10:14:12;;;;;;;72.60;26.60;;;-7.70;99.90;;;;;;5046481;28;20189;-89
2021/01/17 10:16:38;;;;;;;133.60;40.77;;;-4.90;99.90;;;;;;5022696;28;20535;-88
2021/01/17 10:19:07;;;;;;;78.37;28.00;;;-7.50;99.90;;;;;;5000213;28;20239;-88
2021/01/17 10:21:38;;;;;;;127.67;36.67;;;-7.40;99.90;;;;;;5015268;28;20190;-90
2021/01/17 10:24:06;;;;;;;144.53;46.37;;;-7.30;99.90;;;;;;5037983;28;20189;-88
2021/01/17 10:26:33;;;;;;;147.50;51.73;;;-7.10;99.90;;;;;;5043169;28;20257;-89
2021/01/17 10:29:06;;;;;;;86.10;29.67;;;-7.10;99.90;;;;;;5016503;28;20656;-91
2021/01/17 10:31:39;;;;;;;119.53;39.33;;;-6.90;99.90;;;;;;5033645;28;20195;-88
2021/01/17 10:34:04;;;;;;;75.67;27.50;;;-4.20;99.90;;;;;;5027518;28;20185;-88
2021/01/17 10:36:31;;;;;;;91.50;31.70;;;-5.20;99.90;;;;;;5019706;28;20197;-88
2021/01/17 10:38:57;;;;;;;93.70;32.30;;;-6.70;99.90;;;;;;5049062;28;20267;-89
2021/01/17 10:41:35;;;;;;;69.93;30.03;;;-5.40;99.90;;;;;;5055394;28;20176;-90
2021/01/17 10:44:10;;;;;;;82.57;30.10;;;-5.60;99.90;;;;;;5017776;28;20198;-91
2021/01/17 10:46:44;;;;;;;82.73;29.83;;;-7.10;99.90;;;;;;5072148;28;20242;-91
2021/01/17 10:49:17;;;;;;;92.30;34.07;;;-4.60;99.90;;;;;;5076488;28;20299;-92
2021/01/17 11:01:48;;;;;;;56.30;24.10;;;-7.00;99.90;;;;;;5088584;28;20686;-89
2021/01/17 11:04:15;;;;;;;64.60;28.27;;;-7.10;99.90;;;;;;5046189;28;20195;-89
2021/01/17 11:20:28;;;;;;;108.00;32.00;;;-7.50;99.90;;;;;;5078932;28;20183;-89
2021/01/17 11:23:07;;;;;;;90.10;33.50;;;-7.60;99.90;;;;;;5065252;28;20287;-90
2021/01/17 11:25:34;;;;;;;84.93;33.07;;;-5.20;99.90;;;;;;5073345;28;20203;-92
2021/01/17 11:28:02;;;;;;;85.83;30.93;;;-5.70;99.90;;;;;;5074742;28;20200;-89
2021/01/17 11:30:29;;;;;;;104.57;38.07;;;-5.90;99.90;;;;;;5053904;28;20181;-89
2021/01/17 11:33:12;;;;;;;76.47;29.87;;;-4.80;99.90;;;;;;5073171;28;20254;-90
2021/01/17 11:35:39;;;;;;;80.97;31.47;;;-7.00;99.90;;;;;;5054422;28;20183;-89
2021/01/17 11:38:09;;;;;;;74.40;32.27;;;-7.00;99.90;;;;;;5058518;28;20200;-89
2021/01/17 11:40:35;;;;;;;59.30;24.80;;;-7.10;99.90;;;;;;5074338;28;20215;-89
2021/01/17 11:46:37;;;;;;;61.93;23.47;;;-7.40;99.90;;;;;;5057129;28;20240;-89
2021/01/17 11:49:04;;;;;;;59.67;23.63;;;-7.50;99.90;;;;;;5016536;28;20193;-88
2021/01/17 11:51:31;;;;;;;66.60;24.93;;;-7.10;99.90;;;;;;5016950;28;20591;-90
2021/01/17 11:54:14;;;;;;;53.60;22.57;;;-6.50;99.90;;;;;;5001452;28;20177;-90
2021/01/17 11:56:40;;;;;;;55.83;23.70;;;-7.50;99.90;;;;;;5035696;28;20168;-88
2021/01/17 11:59:09;;;;;;;52.53;19.97;;;-5.90;99.90;;;;;;5035785;28;20255;-87
2021/01/17 12:01:35;;;;;;;51.70;23.93;;;-4.40;99.90;;;;;;5039411;28;20660;-87
2021/01/17 12:04:12;;;;;;;42.03;20.47;;;-5.80;99.90;;;;;;5034789;28;20642;-87
2021/01/17 12:06:37;;;;;;;53.70;23.87;;;-7.80;99.90;;;;;;5024049;28;20224;-89
2021/01/17 12:09:05;;;;;;;67.83;29.20;;;-6.50;99.90;;;;;;5034500;28;20190;-89
2021/01/17 12:11:49;;;;;;;67.93;25.87;;;-6.30;99.90;;;;;;5036721;28;20651;-88
2021/01/17 12:14:27;;;;;;;77.53;32.37;;;-8.10;99.90;;;;;;5049345;28;20187;-87
2021/01/17 12:16:55;;;;;;;72.03;29.63;;;-8.00;99.90;;;;;;5037102;28;20187;-88
2021/01/17 12:19:22;;;;;;;66.30;25.90;;;-7.90;99.90;;;;;;5018400;28;20225;-88
2021/01/17 12:21:57;;;;;;;59.67;25.93;;;-8.00;99.90;;;;;;5026500;28;20199;-91
2021/01/17 12:24:32;;;;;;;57.40;25.73;;;-8.60;99.90;;;;;;5033656;28;20192;-94
2021/01/17 12:26:58;;;;;;;67.43;27.33;;;-6.40;99.90;;;;;;5036855;28;20653;-92
2021/01/17 12:29:31;;;;;;;56.03;21.87;;;-8.30;99.90;;;;;;5056908;28;20165;-92
2021/01/17 12:32:21;;;;;;;66.97;31.53;;;-8.30;99.90;;;;;;5061754;22;20243;-90
2021/01/17 12:34:50;;;;;;;91.37;44.13;;;-7.40;99.90;;;;;;5031660;28;20262;-91
2021/01/17 12:37:16;;;;;;;77.23;34.60;;;-8.50;99.90;;;;;;5024390;28;20184;-85
2021/01/17 12:39:57;;;;;;;;;;;;;;;;;;;;;
2021/01/17 12:42:23;;;;;;;74.17;35.60;;;-8.70;99.90;;;;;;5032275;28;20188;-87
2021/01/17 12:44:49;;;;;;;63.50;29.17;;;-8.80;99.90;;;;;;4997335;28;20759;-85
2021/01/17 12:47:15;;;;;;;61.20;27.17;;;-9.00;99.90;;;;;;5003133;28;20197;-87
2021/01/17 12:49:40;;;;;;;56.33;25.37;;;-7.80;99.90;;;;;;5015941;28;20196;-86
2021/01/17 12:52:09;;;;;;;66.87;28.20;;;-7.60;99.90;;;;;;5015586;28;20181;-87
2021/01/17 12:54:37;;;;;;;75.70;29.70;;;-7.10;99.90;;;;;;4999649;28;20183;-89
2021/01/17 12:57:03;;;;;;;64.07;28.27;;;-7.80;99.90;;;;;;5036189;28;20640;-88
2021/01/17 12:59:28;;;;;;;72.17;31.87;;;-8.90;99.90;;;;;;5018662;28;20181;-87
2021/01/17 13:01:54;;;;;;;64.63;29.33;;;-9.20;99.90;;;;;;5051670;28;20538;-90
2021/01/17 13:04:20;;;;;;;65.67;27.97;;;-6.00;99.90;;;;;;5034983;28;20285;-89
2021/01/17 13:06:49;;;;;;;73.67;29.20;;;-7.60;99.90;;;;;;5051972;28;20225;-93
2021/01/17 13:09:14;;;;;;;68.33;28.27;;;-9.10;99.90;;;;;;5038230;28;20773;-90
2021/01/17 13:11:51;;;;;;;60.17;25.40;;;-7.40;99.90;;;;;;5035349;28;20207;-91
2021/01/17 13:14:23;;;;;;;65.83;27.37;;;-8.90;99.90;;;;;;5015486;28;20199;-95
2021/01/17 13:16:51;;;;;;;54.27;24.00;;;-6.70;99.90;;;;;;5048125;28;20198;-93
2021/01/17 13:19:17;;;;;;;67.97;28.43;;;-9.00;99.90;;;;;;5033326;28;20249;-90
2021/01/17 13:22:03;;;;;;;69.80;29.13;;;-7.60;99.90;;;;;;5031549;28;20211;-90
2021/01/17 13:24:29;;;;;;;64.77;31.47;;;-8.10;99.90;;;;;;5029303;28;20188;-89
2021/01/17 13:26:54;;;;;;;73.77;32.77;;;-8.30;99.90;;;;;;5032203;28;20245;-89
2021/01/17 13:32:42;;;;;;;52.37;22.23;;;-9.10;99.90;;;;;;5039227;28;20305;-90
2021/01/17 13:35:09;;;;;;;59.40;27.60;;;-9.10;99.90;;;;;;5023612;28;20978;-89
2021/01/17 13:38:14;;;;;;;59.23;26.47;;;-9.10;99.90;;;;;;5040350;28;20265;-89
2021/01/17 13:40:58;;;;;;;61.90;26.50;;;-9.10;99.90;;;;;;5043104;28;20192;-88